Terminal Aerodrome Forecast
Issued by NWS

Home | Current Version | Previous Version | Text Only | Print | Product List | Glossary On
Versions: 1 2 3 4 5 6 7 8 9 10 11 12
216
FTUS43 KDTX 222327
TAFDET
TAF
KDET 222327Z 2300/2324 16009KT P6SM SCT120
     FM230600 17008KT P6SM SCT050 OVC120
     FM231400 16007KT 5SM -RA BKN030 OVC100
     FM231800 14010KT 3SM RA BR OVC010=

USA.gov is the U.S. government's official web portal to all federal, state and local government web resources and services.